Time;durP1;ratioP1;P1;durP2;ratioP2;P2;SDS_P1;SDS_P2;PMS_P1;PMS_P2;Temp;Humidity;BMP_temperature;BMP_pressure;BME280_temperature;BME280_humidity;BME280_pressure;Samples;Min_cycle;Max_cycle;Signal;HPM_P1;HPM_P2
2022/10/21 00:01:36;;;;;;;46.40;25.00;;;;;;;2.04;73.95;99434.25;86251;1289;22614;-76
2022/10/21 00:03:37;;;;;;;44.10;24.60;;;;;;;2.04;74.08;99436.51;86015;1290;22628;-75
2022/10/21 00:05:39;;;;;;;41.70;24.30;;;;;;;2.00;73.92;99435.14;86105;1295;99083;-75
2022/10/21 00:07:39;;;;;;;40.30;22.10;;;;;;;1.99;74.17;99438.78;86094;1304;22484;-75
2022/10/21 00:09:44;;;;;;;42.50;23.20;;;;;;;1.99;74.05;99439.14;86236;1288;22606;-75
2022/10/21 00:11:45;;;;;;;47.10;24.90;;;;;;;1.97;74.07;99437.76;86046;1295;98092;-75
2022/10/21 00:13:46;;;;;;;48.20;23.80;;;;;;;1.97;74.02;99442.80;86082;1293;26594;-75
2022/10/21 00:16:03;;;;;;;43.00;23.50;;;;;;;1.97;74.01;99445.58;86173;1294;24244;-75
2022/10/21 00:18:04;;;;;;;38.70;23.40;;;;;;;1.94;74.15;99442.98;86092;1278;98662;-76
2022/10/21 00:20:08;;;;;;;52.00;25.40;;;;;;;1.92;74.38;99440.22;86321;1278;22601;-75
2022/10/21 00:22:09;;;;;;;52.50;25.40;;;;;;;1.90;73.98;99440.23;86436;1284;22528;-75
2022/10/21 00:24:10;;;;;;;40.70;24.50;;;;;;;1.89;74.19;99435.56;86253;1288;100266;-74
2022/10/21 00:26:13;;;;;;;42.90;22.70;;;;;;;1.89;74.29;99434.70;86189;1294;22608;-75
2022/10/21 00:28:14;;;;;;;36.60;22.60;;;;;;;1.88;74.57;99432.09;86255;1286;22585;-74
2022/10/21 00:30:15;;;;;;;50.50;23.70;;;;;;;1.87;74.48;99430.37;86201;1284;23045;-75
2022/10/21 00:32:16;;;;;;;47.70;23.00;;;;;;;1.83;74.42;99422.59;86120;1297;22478;-75
2022/10/21 00:34:17;;;;;;;42.90;25.80;;;;;;;1.76;74.28;99416.58;86174;1278;98154;-76
2022/10/21 00:36:18;;;;;;;40.80;23.90;;;;;;;1.66;74.25;99410.04;86232;1284;22537;-74
2022/10/21 00:38:20;;;;;;;44.80;24.00;;;;;;;1.52;74.14;99404.55;86319;1285;24144;-74
2022/10/21 00:40:21;;;;;;;43.80;24.70;;;;;;;1.40;74.13;99400.45;86056;1291;99622;-74
2022/10/21 00:42:27;;;;;;;44.90;23.50;;;;;;;1.28;74.29;99395.48;86061;1288;22644;-75
2022/10/21 00:44:29;;;;;;;35.40;22.10;;;;;;;1.19;74.52;99392.56;86221;1281;22478;-76
2022/10/21 00:47:14;;;;;;;41.00;23.20;;;;;;;1.11;74.53;99387.06;86006;1281;99922;-75
2022/10/21 00:49:33;;;;;;;42.50;22.30;;;;;;;1.02;74.62;99385.52;86181;1287;22494;-76
2022/10/21 00:51:35;;;;;;;48.70;22.40;;;;;;;0.99;74.91;99377.76;86137;1288;22695;-75
2022/10/21 00:53:39;;;;;;;50.50;25.20;;;;;;;0.96;74.88;99369.46;86230;1284;99337;-74
2022/10/21 00:55:46;;;;;;;44.40;25.50;;;;;;;0.92;74.89;99360.12;86256;1284;22969;-75
2022/10/21 00:57:48;;;;;;;50.30;25.80;;;;;;;0.90;75.09;99354.24;86419;1278;22488;-75
2022/10/21 00:59:54;;;;;;;48.30;25.40;;;;;;;0.87;75.11;99349.92;86096;1285;98015;-75
2022/10/21 01:01:55;;;;;;;44.60;24.90;;;;;;;0.93;75.30;99354.23;86405;1289;22454;-74
2022/10/21 01:03:55;;;;;;;48.10;25.00;;;;;;;0.95;75.21;99357.52;86238;1294;22563;-76
2022/10/21 01:06:01;;;;;;;44.10;24.40;;;;;;;0.97;75.05;99368.24;86093;1278;99307;-75
2022/10/21 01:08:02;;;;;;;40.60;23.50;;;;;;;1.00;75.17;99378.27;86171;1301;22486;-75
2022/10/21 01:10:05;;;;;;;47.70;24.30;;;;;;;1.04;75.20;99381.19;86307;1284;22580;-75
2022/10/21 01:12:14;;;;;;;42.60;24.00;;;;;;;1.07;75.31;99382.06;86198;1284;98895;-75
2022/10/21 01:14:43;;;;;;;45.20;23.60;;;;;;;1.11;75.24;99376.84;86299;1292;24259;-75
2022/10/21 01:17:00;;;;;;;51.00;24.90;;;;;;;1.12;75.29;99359.55;86103;1284;99245;-76
2022/10/21 01:19:38;;;;;;;45.40;23.20;;;;;;;1.14;75.27;99355.38;86220;1291;22478;-74
2022/10/21 01:21:48;;;;;;;42.80;24.10;;;;;;;1.16;75.44;99351.92;86329;1282;24234;-75
2022/10/21 01:24:07;;;;;;;47.00;25.80;;;;;;;1.17;75.30;99343.24;86160;1285;99331;-76
2022/10/21 01:26:24;;;;;;;46.40;26.10;;;;;;;1.17;75.48;99342.72;86309;1282;24204;-76
2022/10/21 01:28:54;;;;;;;59.00;25.10;;;;;;;1.18;75.27;99350.52;86213;1279;99280;-75
2022/10/21 01:31:09;;;;;;;41.70;27.00;;;;;;;1.16;75.48;99351.91;86241;1292;22460;-76
2022/10/21 01:33:16;;;;;;;49.10;26.60;;;;;;;1.15;75.51;99347.93;86202;1286;24828;-76
2022/10/21 01:35:27;;;;;;;45.70;25.90;;;;;;;1.17;75.41;99356.75;86247;1281;98581;-75
2022/10/21 01:37:37;;;;;;;65.80;28.80;;;;;;;1.18;75.47;99356.91;86277;1294;22463;-74
2022/10/21 01:39:45;;;;;;;43.30;25.50;;;;;;;1.19;75.34;99357.95;86172;1284;23453;-75
2022/10/21 01:41:45;;;;;;;53.40;26.50;;;;;;;1.20;75.62;99356.58;86029;1288;98456;-76
2022/10/21 01:43:57;;;;;;;57.40;27.40;;;;;;;1.20;75.77;99357.27;86368;1281;22488;-75
2022/10/21 01:46:08;;;;;;;52.50;25.20;;;;;;;1.19;75.33;99362.11;86176;1310;22473;-75
2022/10/21 01:48:19;;;;;;;40.70;24.30;;;;;;;1.17;75.33;99364.19;86032;1288;99050;-77
2022/10/21 01:50:26;;;;;;;48.60;24.20;;;;;;;1.19;75.62;99359.34;86154;1281;22531;-76
2022/10/21 01:52:29;;;;;;;43.30;23.70;;;;;;;1.22;75.40;99353.45;86103;1287;99701;-75
2022/10/21 01:54:35;;;;;;;43.40;24.80;;;;;;;1.22;75.24;99356.90;86301;1295;25535;-75
2022/10/21 01:56:39;;;;;;;42.40;21.90;;;;;;;1.23;75.59;99353.43;86184;1285;26395;-75
2022/10/21 01:58:44;;;;;;;41.50;23.00;;;;;;;1.20;75.64;99349.83;86393;1289;100108;-75
2022/10/21 02:00:48;;;;;;;45.50;21.60;;;;;;;1.18;75.61;99339.61;86257;1286;22504;-75
2022/10/21 02:02:49;;;;;;;42.90;23.30;;;;;;;1.18;75.48;99338.92;86242;1284;23066;-75
2022/10/21 02:04:52;;;;;;;49.50;22.70;;;;;;;1.16;75.47;99338.23;86191;1310;99069;-76
2022/10/21 02:06:53;;;;;;;42.60;23.90;;;;;;;1.15;75.40;99341.52;86298;1278;24361;-76
2022/10/21 02:08:54;;;;;;;41.50;21.90;;;;;;;1.15;75.41;99345.34;86332;1295;22489;-75
2022/10/21 02:11:02;;;;;;;42.50;22.30;;;;;;;1.15;75.58;99343.08;86053;1286;99338;-76
2022/10/21 02:13:07;;;;;;;48.90;24.70;;;;;;;1.16;75.55;99340.30;86147;1287;24446;-74
2022/10/21 02:15:11;;;;;;;53.90;25.50;;;;;;;1.14;75.72;99343.60;86193;1291;25678;-76
2022/10/21 02:17:16;;;;;;;54.00;26.40;;;;;;;1.13;75.50;99346.38;86260;1294;97849;-75
2022/10/21 02:19:19;;;;;;;39.40;25.40;;;;;;;1.12;75.63;99348.81;86186;1304;22494;-75
2022/10/21 02:21:23;;;;;;;46.70;25.20;;;;;;;1.12;75.62;99345.70;86133;1280;22817;-76
2022/10/21 02:23:34;;;;;;;42.60;26.30;;;;;;;1.10;75.54;99342.06;86157;1288;97993;-76
2022/10/21 02:25:39;;;;;;;49.20;27.10;;;;;;;1.08;75.58;99338.61;85984;1281;22607;-76
2022/10/21 02:27:40;;;;;;;39.20;24.40;;;;;;;1.05;75.58;99332.92;86217;1289;22924;-75
2022/10/21 02:29:44;;;;;;;;;;;;;;;0.99;75.52;99332.95;86154;1295;98765;-75
2022/10/21 02:31:50;;;;;;;39.70;21.70;;;;;;;0.95;75.67;99330.88;86348;1278;25991;-75
2022/10/21 02:34:15;;;;;;;34.80;22.30;;;;;;;0.90;75.66;99326.39;86406;1288;22567;-76
2022/10/21 02:36:30;;;;;;;42.30;23.10;;;;;;;0.85;75.70;99323.98;86344;1294;22963;-74
2022/10/21 02:38:41;;;;;;;41.40;23.30;;;;;;;0.84;75.81;99326.76;86216;1288;22612;-76
2022/10/21 02:40:47;;;;;;;38.60;24.70;;;;;;;0.81;75.98;99322.62;86182;1288;100888;-76
2022/10/21 02:42:55;;;;;;;37.80;21.40;;;;;;;0.76;75.90;99324.53;86205;1292;22474;-75
2022/10/21 02:45:00;;;;;;;37.60;22.80;;;;;;;0.70;75.86;99322.83;86155;1288;23320;-76
2022/10/21 02:47:03;;;;;;;39.10;22.40;;;;;;;0.67;75.98;99321.80;86087;1288;99397;-76
2022/10/21 02:49:04;;;;;;;36.80;22.50;;;;;;;0.64;75.95;99316.26;86191;1295;24368;-76
2022/10/21 02:51:06;;;;;;;;;;;;;;;0.57;76.08;99309.02;86219;1294;22465;-75
2022/10/21 02:53:09;;;;;;;43.70;24.60;;;;;;;0.52;75.88;99307.29;86162;1295;84247;-75
2022/10/21 02:55:11;;;;;;;40.10;23.70;;;;;;;0.48;76.20;99301.42;86117;1288;24253;-77
2022/10/21 02:57:12;;;;;;;46.50;24.90;;;;;;;0.46;76.30;99297.80;86376;1286;22654;-75
2022/10/21 02:59:14;;;;;;;44.10;25.40;;;;;;;0.46;76.07;99304.03;86117;1288;98064;-76
2022/10/21 03:01:15;;;;;;;62.40;28.40;;;;;;;0.46;76.13;99304.37;86380;1281;24184;-76
2022/10/21 03:03:16;;;;;;;52.60;27.90;;;;;;;0.46;76.29;99303.16;86200;1286;23271;-76
2022/10/21 03:05:17;;;;;;;42.50;25.70;;;;;;;0.47;76.27;99302.30;86076;1288;100676;-76
2022/10/21 03:07:18;;;;;;;42.10;24.70;;;;;;;0.48;76.34;99304.02;86259;1288;22694;-75
2022/10/21 03:09:19;;;;;;;44.10;24.50;;;;;;;0.48;76.31;99292.95;86186;1300;22496;-75
2022/10/21 03:11:20;;;;;;;;;;;;;;;0.48;76.28;99290.36;86130;1285;99319;-76
2022/10/21 03:13:22;;;;;;;40.00;22.80;;;;;;;0.49;76.33;99294.34;86211;1285;22748;-75
2022/10/21 03:15:23;;;;;;;41.60;22.90;;;;;;;0.49;76.19;99304.70;86322;1285;25158;-76
2022/10/21 03:17:24;;;;;;;38.60;23.10;;;;;;;0.48;76.18;99300.03;86179;1295;99070;-75
2022/10/21 03:19:25;;;;;;;36.10;22.90;;;;;;;0.43;76.18;99294.86;86277;1286;22622;-76
2022/10/21 03:21:26;;;;;;;;;;;;;;;0.46;76.22;99303.69;86260;1310;25301;-76
2022/10/21 03:23:27;;;;;;;45.20;23.70;;;;;;;0.44;76.00;99298.14;86333;1286;86166;-75
2022/10/21 03:25:28;;;;;;;40.10;22.50;;;;;;;0.43;76.09;99298.33;86216;1288;22490;-76
2022/10/21 03:27:29;;;;;;;44.90;22.50;;;;;;;0.41;76.09;99299.20;86035;1287;24809;-75
2022/10/21 03:29:30;;;;;;;48.00;24.70;;;;;;;0.39;76.01;99290.21;86198;1285;98145;-75
2022/10/21 03:31:31;;;;;;;53.20;24.10;;;;;;;0.38;75.98;99279.66;86194;1284;22558;-76
2022/10/21 03:33:32;;;;;;;49.00;23.10;;;;;;;0.30;76.09;99262.91;86113;1288;22473;-76
2022/10/21 03:35:32;;;;;;;47.70;25.90;;;;;;;0.33;76.22;99271.21;86098;1288;99193;-76
2022/10/21 03:37:33;;;;;;;46.10;24.60;;;;;;;0.28;76.07;99273.47;86253;1284;22592;-75
2022/10/21 03:39:34;;;;;;;39.40;23.90;;;;;;;0.25;76.31;99279.52;86170;1288;22682;-75
2022/10/21 03:41:35;;;;;;;48.00;23.80;;;;;;;0.23;76.31;99281.26;86094;1295;99250;-76
2022/10/21 03:43:36;;;;;;;40.70;22.90;;;;;;;0.21;76.31;99285.75;86123;1295;23797;-75
2022/10/21 03:45:37;;;;;;;43.50;24.50;;;;;;;0.20;76.35;99284.20;86180;1278;22473;-75
2022/10/21 03:47:38;;;;;;;41.30;22.60;;;;;;;0.19;76.39;99277.46;86223;1295;99079;-76
2022/10/21 03:49:39;;;;;;;37.50;20.20;;;;;;;0.18;76.30;99275.21;86245;1288;22629;-75
2022/10/21 03:51:40;;;;;;;38.50;22.90;;;;;;;0.15;76.35;99272.79;86303;1285;26867;-76
2022/10/21 03:53:41;;;;;;;47.20;21.20;;;;;;;0.17;76.38;99275.73;86261;1302;99702;-76
2022/10/21 03:55:42;;;;;;;47.30;22.20;;;;;;;0.18;76.37;99277.27;86274;1289;22468;-75
2022/10/21 03:57:42;;;;;;;43.50;22.20;;;;;;;0.17;76.35;99274.17;86118;1289;22538;-76
2022/10/21 03:59:43;;;;;;;44.40;22.50;;;;;;;0.15;76.31;99273.50;86376;1292;99068;-75
2022/10/21 04:01:44;;;;;;;46.80;22.00;;;;;;;0.14;76.31;99265.36;86305;1299;22507;-75
2022/10/21 04:03:45;;;;;;;50.60;23.50;;;;;;;0.12;76.25;99263.29;86284;1295;22624;-75
2022/10/21 04:05:46;;;;;;;62.20;22.90;;;;;;;0.13;76.42;99261.56;86323;1288;98257;-75
2022/10/21 04:07:47;;;;;;;38.20;22.30;;;;;;;0.14;76.48;99257.77;86286;1291;25322;-76
2022/10/21 04:09:48;;;;;;;44.90;22.50;;;;;;;0.13;76.50;99260.70;86181;1288;22488;-75
2022/10/21 04:11:49;;;;;;;51.80;23.50;;;;;;;0.12;76.53;99258.63;86333;1284;97997;-75
2022/10/21 04:13:50;;;;;;;44.40;22.60;;;;;;;0.10;76.54;99251.39;86284;1286;22512;-76
2022/10/21 04:16:00;;;;;;;41.30;22.10;;;;;;;0.06;76.41;99246.55;86362;1295;22473;-76
2022/10/21 04:18:04;;;;;;;37.80;22.10;;;;;;;0.01;76.57;99242.06;86107;1285;99888;-76
2022/10/21 04:20:06;;;;;;;33.90;20.70;;;;;;;-0.03;76.38;99237.23;86688;1281;25663;-75
2022/10/21 04:22:07;;;;;;;41.60;21.60;;;;;;;-0.03;76.56;99233.60;86240;1281;22500;-75
2022/10/21 04:24:08;;;;;;;40.50;22.70;;;;;;;-0.04;76.59;99233.59;86422;1286;99434;-77
2022/10/21 04:26:10;;;;;;;45.20;23.40;;;;;;;-0.07;76.72;99229.63;86267;1281;25860;-77
2022/10/21 04:28:11;;;;;;;37.10;21.50;;;;;;;-0.08;76.69;99223.94;86401;1295;22477;-76
2022/10/21 04:30:12;;;;;;;54.80;25.00;;;;;;;-0.10;76.72;99220.48;86131;1291;99205;-76
2022/10/21 04:32:13;;;;;;;38.70;22.20;;;;;;;-0.12;76.71;99221.52;86192;1288;22652;-76
2022/10/21 04:34:14;;;;;;;42.00;24.00;;;;;;;-0.14;76.67;99222.90;86501;1283;25389;-76
2022/10/21 04:36:14;;;;;;;53.20;22.60;;;;;;;-0.16;76.74;99222.56;86361;1310;99451;-76
2022/10/21 04:38:16;;;;;;;48.00;22.90;;;;;;;-0.15;76.75;99224.97;86282;1303;25264;-75
2022/10/21 04:40:17;;;;;;;48.60;23.50;;;;;;;-0.16;76.80;99219.29;86063;1288;98574;-76
2022/10/21 04:42:18;;;;;;;43.80;23.00;;;;;;;-0.18;76.87;99217.03;86032;1294;25566;-76
2022/10/21 04:44:19;;;;;;;50.90;24.30;;;;;;;-0.19;76.85;99214.61;86156;1295;25274;-75
2022/10/21 04:46:20;;;;;;;54.60;24.30;;;;;;;-0.21;76.89;99218.77;86073;1285;98703;-76
2022/10/21 04:48:21;;;;;;;;;;;;;;;-0.21;76.87;99212.03;86231;1286;22458;-74
2022/10/21 04:50:22;;;;;;;68.90;25.40;;;;;;;-0.32;77.01;99195.64;86442;1284;22520;-76
2022/10/21 04:52:23;;;;;;;;;;;;;;;-0.21;76.87;99209.95;86289;1284;100025;-76
2022/10/21 04:54:24;;;;;;;38.70;23.90;;;;;;;-0.21;77.12;99212.73;86357;1284;22635;-77
2022/10/21 04:56:25;;;;;;;56.80;24.30;;;;;;;-0.21;77.15;99214.27;86186;1288;24263;-76
2022/10/21 04:58:26;;;;;;;59.50;24.70;;;;;;;-0.21;77.01;99216.17;86115;1284;102164;-75
2022/10/21 05:00:27;;;;;;;54.30;23.00;;;;;;;-0.17;77.14;99212.20;86086;1289;22470;-77
2022/10/21 05:02:28;;;;;;;58.00;25.90;;;;;;;-0.13;77.22;99210.30;86414;1301;22520;-76
2022/10/21 05:04:29;;;;;;;55.30;24.50;;;;;;;-0.10;77.26;99211.50;86359;1283;99871;-76
2022/10/21 05:06:30;;;;;;;77.10;28.70;;;;;;;-0.08;77.23;99207.53;86501;1282;24023;-75
2022/10/21 05:08:31;;;;;;;69.30;25.40;;;;;;;-0.08;77.13;99203.04;86402;1310;22834;-76
2022/10/21 05:10:32;;;;;;;52.10;23.80;;;;;;;-0.08;77.15;99195.62;86224;1286;99477;-75
2022/10/21 05:12:33;;;;;;;45.50;22.40;;;;;;;-0.11;77.19;99191.30;86111;1294;25403;-73
2022/10/21 05:14:33;;;;;;;53.50;24.50;;;;;;;-0.21;76.93;99184.92;86145;1284;24255;-73
2022/10/21 05:16:37;;;;;;;67.60;23.90;;;;;;;-0.12;77.06;99200.27;86211;1282;99572;-74
2022/10/21 05:18:38;;;;;;;43.70;21.50;;;;;;;-0.13;77.04;99201.66;86047;1293;25302;-73
2022/10/21 05:20:39;;;;;;;67.30;23.30;;;;;;;-0.12;77.14;99200.45;86158;1286;22654;-73
2022/10/21 05:22:40;;;;;;;73.40;24.50;;;;;;;-0.12;77.16;99202.17;86137;1294;98049;-73
2022/10/21 05:24:41;;;;;;;83.10;24.40;;;;;;;-0.11;77.19;99209.42;86261;1290;22512;-72
2022/10/21 05:26:42;;;;;;;60.30;22.10;;;;;;;-0.11;77.26;99214.77;86340;1285;22834;-73
2022/10/21 05:28:44;;;;;;;;;;;;;;;-0.10;77.31;99214.27;86038;1289;99896;-72
2022/10/21 05:30:45;;;;;;;54.50;23.30;;;;;;;-0.09;77.25;99210.81;86300;1285;22608;-72
2022/10/21 05:32:48;;;;;;;61.10;22.90;;;;;;;-0.07;77.41;99214.08;86236;1292;22647;-73
2022/10/21 05:34:49;;;;;;;52.60;23.90;;;;;;;-0.04;77.37;99226.88;86280;1290;99139;-72
2022/10/21 05:36:50;;;;;;;41.00;23.50;;;;;;;-0.01;77.39;99228.42;86228;1296;26584;-72
2022/10/21 05:38:52;;;;;;;47.90;23.90;;;;;;;0.03;77.40;99231.00;86186;1284;22596;-73
2022/10/21 05:40:54;;;;;;;54.70;23.50;;;;;;;0.08;77.40;99229.95;86082;1301;99104;-73
2022/10/21 05:42:56;;;;;;;37.50;22.00;;;;;;;0.11;77.42;99224.77;86128;1289;22646;-73
2022/10/21 05:44:57;;;;;;;38.90;22.10;;;;;;;0.15;77.39;99221.83;86039;1295;22497;-73
2022/10/21 05:46:58;;;;;;;58.70;23.80;;;;;;;0.19;77.57;99219.05;86112;1291;99384;-72
2022/10/21 05:48:59;;;;;;;58.80;23.70;;;;;;;0.22;77.46;99219.73;86091;1298;22534;-74
2022/10/21 05:51:00;;;;;;;52.30;24.90;;;;;;;0.25;77.44;99223.70;86363;1291;23015;-73
2022/10/21 05:53:01;;;;;;;52.50;23.90;;;;;;;0.29;77.49;99230.60;86174;1285;98594;-72
2022/10/21 05:55:04;;;;;;;69.00;25.10;;;;;;;0.35;77.63;99229.20;86181;1312;22467;-72
2022/10/21 05:57:05;;;;;;;66.80;24.80;;;;;;;0.42;77.85;99221.74;86222;1289;22616;-72
2022/10/21 05:59:06;;;;;;;50.20;25.40;;;;;;;0.50;77.78;99216.19;85969;1298;98261;-72
2022/10/21 06:01:07;;;;;;;51.60;24.30;;;;;;;0.58;77.74;99218.23;86239;1298;22474;-71
2022/10/21 06:03:08;;;;;;;61.70;27.40;;;;;;;0.64;77.76;99209.57;86285;1298;22966;-71
2022/10/21 06:05:09;;;;;;;52.20;25.50;;;;;;;0.71;77.70;99216.80;86045;1294;98078;-71
2022/10/21 06:07:10;;;;;;;51.30;25.20;;;;;;;0.76;77.80;99220.92;86267;1285;25391;-72
2022/10/21 06:09:11;;;;;;;59.60;26.80;;;;;;;0.84;77.88;99220.38;86101;1288;22654;-71
2022/10/21 06:11:16;;;;;;;52.30;25.50;;;;;;;0.92;77.94;99210.65;86168;1289;100339;-73
2022/10/21 06:13:17;;;;;;;50.60;23.90;;;;;;;1.00;77.88;99199.34;86179;1292;25619;-72
2022/10/21 06:15:18;;;;;;;53.20;26.20;;;;;;;1.06;77.76;99197.08;85919;1295;25448;-73
2022/10/21 06:17:19;;;;;;;55.00;24.80;;;;;;;1.11;77.80;99191.68;86182;1296;99253;-71
2022/10/21 06:19:20;;;;;;;56.00;23.90;;;;;;;1.17;77.75;99188.52;86109;1286;22507;-72
2022/10/21 06:21:21;;;;;;;50.70;24.20;;;;;;;1.24;77.93;99187.77;86008;1290;22484;-71
2022/10/21 06:23:23;;;;;;;49.80;24.90;;;;;;;1.28;77.77;99192.09;86004;1284;98461;-72
2022/10/21 06:25:24;;;;;;;47.20;24.30;;;;;;;1.32;77.75;99206.06;86080;1291;24414;-73
2022/10/21 06:27:26;;;;;;;69.80;27.30;;;;;;;1.39;77.76;99227.15;86168;1298;22648;-71
2022/10/21 06:29:27;;;;;;;50.90;24.60;;;;;;;1.47;77.72;99244.05;86160;1291;99670;-71
2022/10/21 06:31:28;;;;;;;64.30;29.30;;;;;;;1.59;78.09;99248.66;86133;1284;22517;-72
2022/10/21 06:33:29;;;;;;;52.00;25.00;;;;;;;1.69;78.19;99249.78;86079;1292;22515;-73
2022/10/21 06:35:30;;;;;;;47.70;26.70;;;;;;;1.78;77.97;99244.00;86023;1292;99205;-72
2022/10/21 06:37:30;;;;;;;51.00;26.50;;;;;;;1.86;77.89;99252.25;86120;1281;22486;-71
2022/10/21 06:39:31;;;;;;;51.50;25.20;;;;;;;1.94;77.87;99258.94;86313;1294;25528;-72
2022/10/21 06:41:32;;;;;;;59.20;28.30;;;;;;;2.03;77.97;99255.56;85973;1289;99576;-73
2022/10/21 06:43:34;;;;;;;40.50;23.70;;;;;;;2.11;77.91;99253.25;86002;1278;22541;-72
2022/10/21 06:45:34;;;;;;;44.50;25.10;;;;;;;2.17;78.01;99252.83;85995;1292;25379;-72
2022/10/21 06:47:35;;;;;;;54.20;25.70;;;;;;;2.24;77.87;99252.08;86043;1285;99400;-71
2022/10/21 06:49:36;;;;;;;53.70;26.20;;;;;;;2.32;77.86;99241.59;85936;1301;23005;-72
2022/10/21 06:51:37;;;;;;;49.00;25.80;;;;;;;2.39;77.82;99235.98;86000;1284;22872;-73
2022/10/21 06:53:38;;;;;;;46.30;23.20;;;;;;;2.45;77.86;99241.79;85821;1300;98026;-73
2022/10/21 06:55:39;;;;;;;51.00;26.40;;;;;;;2.53;77.90;99246.05;85976;1291;23452;-73
2022/10/21 06:57:40;;;;;;;49.40;24.90;;;;;;;2.60;77.87;99236.43;85848;1295;22476;-72
2022/10/21 06:59:40;;;;;;;53.30;25.50;;;;;;;2.68;78.09;99239.11;85970;1286;99473;-71
2022/10/21 07:01:41;;;;;;;46.50;24.60;;;;;;;2.72;77.82;99238.20;86065;1286;22495;-72
2022/10/21 07:03:43;;;;;;;69.70;26.10;;;;;;;2.75;77.81;99240.94;85680;1287;227839;-72
2022/10/21 07:05:43;;;;;;;;;;;;;;;2.74;77.79;99242.16;85868;1286;99178;-71
2022/10/21 07:07:44;;;;;;;67.70;26.20;;;;;;;2.74;78.07;99246.31;86070;1284;22431;-72
2022/10/21 07:09:45;;;;;;;58.00;28.30;;;;;;;2.76;77.78;99246.30;85945;1289;22560;-73
2022/10/21 07:11:46;;;;;;;62.30;27.00;;;;;;;2.77;77.58;99247.84;85857;1292;99394;-72
2022/10/21 07:13:47;;;;;;;50.30;26.20;;;;;;;2.81;77.75;99248.84;86061;1285;25449;-72
2022/10/21 07:16:02;;;;;;;64.30;26.60;;;;;;;2.85;78.09;99244.11;85907;1299;22507;-72
2022/10/21 07:18:03;;;;;;;43.40;25.10;;;;;;;2.90;78.17;99245.61;85975;1291;98098;-73
2022/10/21 07:20:05;;;;;;;53.10;26.10;;;;;;;2.93;77.92;99244.87;85887;1289;25434;-73
2022/10/21 07:22:06;;;;;;;49.80;26.80;;;;;;;2.99;77.86;99248.28;86057;1284;22508;-72
2022/10/21 07:24:08;;;;;;;;;;;;;;;3.02;77.94;99240.95;85911;1296;99761;-71
2022/10/21 07:26:09;;;;;;;50.10;25.20;;;;;;;3.02;77.78;99231.05;86038;1286;26580;-72
2022/10/21 07:28:09;;;;;;;56.10;25.30;;;;;;;3.02;77.57;99230.02;85925;1284;22619;-72
2022/10/21 07:30:11;;;;;;;70.80;25.20;;;;;;;3.01;77.44;99226.20;85975;1286;98976;-71
2022/10/21 07:32:11;;;;;;;60.20;25.40;;;;;;;3.00;77.41;99226.20;85804;1301;22498;-71
2022/10/21 07:34:12;;;;;;;54.70;28.50;;;;;;;3.02;77.66;99226.36;85895;1295;25295;-72
2022/10/21 07:36:20;;;;;;;48.80;26.90;;;;;;;3.06;77.74;99227.17;85933;1286;99022;-72
2022/10/21 07:38:21;;;;;;;47.50;26.80;;;;;;;3.12;77.92;99221.02;85975;1287;22890;-71
2022/10/21 07:40:22;;;;;;;47.50;26.80;;;;;;;3.20;78.03;99214.48;85862;1291;99327;-72
2022/10/21 07:42:24;;;;;;;43.00;25.80;;;;;;;3.31;77.99;99215.70;85955;1288;22472;-74
2022/10/21 07:44:25;;;;;;;68.40;28.50;;;;;;;3.44;77.77;99218.98;86006;1283;25700;-74
2022/10/21 07:46:27;;;;;;;63.40;28.50;;;;;;;3.59;77.81;99219.96;86009;1286;99352;-73
2022/10/21 07:48:27;;;;;;;;;;;;;;;3.67;77.73;99214.11;86004;1285;24318;-73
2022/10/21 07:50:28;;;;;;;54.30;29.80;;;;;;;3.75;77.57;99211.55;85962;1284;22585;-72
2022/10/21 07:52:29;;;;;;;41.60;24.80;;;;;;;3.82;77.50;99208.14;85971;1284;121308;-73
2022/10/21 07:54:30;;;;;;;52.00;27.90;;;;;;;3.85;77.20;99208.77;86004;1286;22465;-72
2022/10/21 07:56:34;;;;;;;53.50;29.30;;;;;;;3.86;77.21;99209.45;86053;1278;25409;-72
2022/10/21 07:58:35;;;;;;;53.20;28.40;;;;;;;3.88;77.39;99203.15;85842;1284;99377;-71
2022/10/21 08:00:36;;;;;;;41.90;25.00;;;;;;;3.92;77.28;99198.91;86020;1286;22572;-72
2022/10/21 08:02:38;;;;;;;53.80;26.70;;;;;;;3.93;77.34;99195.42;86077;1284;22527;-72
2022/10/21 08:04:39;;;;;;;40.40;23.20;;;;;;;3.98;77.52;99194.47;85884;1288;99995;-72
2022/10/21 08:06:42;;;;;;;63.50;27.00;;;;;;;4.06;77.62;99187.20;86112;1285;22519;-71
2022/10/21 08:08:44;;;;;;;54.80;26.30;;;;;;;4.15;77.61;99186.50;85978;1286;23562;-71
2022/10/21 08:10:45;;;;;;;68.20;26.70;;;;;;;4.25;77.77;99188.75;85822;1285;99257;-71
2022/10/21 08:12:46;;;;;;;39.50;23.70;;;;;;;4.36;77.77;99180.02;85939;1287;22521;-72
2022/10/21 08:14:47;;;;;;;47.20;26.00;;;;;;;4.49;77.92;99170.52;85931;1288;22480;-72
2022/10/21 08:16:52;;;;;;;58.80;26.10;;;;;;;4.68;77.70;99174.15;85907;1293;97925;-71
2022/10/21 08:18:58;;;;;;;63.30;26.00;;;;;;;4.86;77.66;99168.02;85994;1287;23211;-73
2022/10/21 08:21:01;;;;;;;55.00;27.70;;;;;;;5.03;77.58;99166.42;85927;1287;25374;-71
2022/10/21 08:23:02;;;;;;;57.00;27.90;;;;;;;5.20;77.64;99169.01;85857;1285;97915;-71
2022/10/21 08:25:03;;;;;;;51.50;28.50;;;;;;;5.43;77.71;99170.38;85976;1295;22576;-72
2022/10/21 08:27:04;;;;;;;;;;;;;;;5.58;77.58;99163.21;85981;1286;27013;-72
2022/10/21 08:29:08;;;;;;;53.00;25.80;;;;;;;5.66;77.22;99158.33;85971;1292;84507;-71
2022/10/21 08:31:15;;;;;;;60.90;25.50;;;;;;;5.67;76.97;99153.77;86021;1285;22559;-71
2022/10/21 08:33:17;;;;;;;47.10;26.00;;;;;;;5.69;76.90;99152.31;86329;1288;22505;-72
2022/10/21 08:35:17;;;;;;;;;;;;;;;5.75;76.93;99146.92;85927;1284;98273;-73
2022/10/21 08:37:18;;;;;;;42.90;25.20;;;;;;;5.77;76.81;99144.09;86040;1286;22704;-72
2022/10/21 08:39:19;;;;;;;46.20;25.50;;;;;;;5.79;76.76;99141.41;86148;1285;22468;-72
2022/10/21 08:41:29;;;;;;;;;;;;;;;5.80;76.71;99134.06;85822;1288;100696;-73
2022/10/21 08:43:33;;;;;;;44.60;26.10;;;;;;;5.85;76.92;99128.70;86042;1283;24459;-72
2022/10/21 08:45:43;;;;;;;54.20;25.80;;;;;;;5.94;76.87;99127.77;85930;1284;22514;-72
2022/10/21 08:47:51;;;;;;;42.20;27.20;;;;;;;6.05;76.93;99128.73;85942;1295;99148;-71
2022/10/21 08:50:10;;;;;;;43.30;26.20;;;;;;;6.17;77.12;99129.80;85976;1302;22499;-73
2022/10/21 08:52:15;;;;;;;44.70;24.20;;;;;;;6.31;77.04;99124.88;85919;1284;22484;-72
2022/10/21 08:54:30;;;;;;;36.10;24.10;;;;;;;6.42;77.00;99125.79;86074;1286;99013;-71
2022/10/21 08:56:31;;;;;;;48.60;26.00;;;;;;;6.50;76.86;99122.21;86417;1284;22980;-71
2022/10/21 08:58:32;;;;;;;50.60;25.20;;;;;;;6.59;76.67;99121.45;85893;1292;99379;-72
2022/10/21 09:00:42;;;;;;;;;;;;;;;6.68;76.50;99119.42;85995;1291;22569;-72
2022/10/21 09:03:09;;;;;;;46.40;24.20;;;;;;;6.77;76.68;99121.63;86068;1284;22458;-71
2022/10/21 09:05:28;;;;;;;43.60;23.70;;;;;;;6.86;76.46;99120.81;85864;1284;100234;-71
2022/10/21 09:07:42;;;;;;;45.30;26.30;;;;;;;6.92;76.28;99111.02;85972;1288;22566;-71
2022/10/21 09:09:52;;;;;;;58.20;26.60;;;;;;;7.04;76.63;99105.23;85953;1295;22513;-72
2022/10/21 09:11:57;;;;;;;40.90;25.30;;;;;;;7.14;76.46;99105.61;86153;1286;98997;-72
2022/10/21 09:14:28;;;;;;;44.80;25.70;;;;;;;7.22;76.55;99103.09;86037;1281;24269;-71
2022/10/21 09:16:43;;;;;;;52.60;26.20;;;;;;;7.32;76.57;99104.87;85924;1278;99168;-72
2022/10/21 09:19:02;;;;;;;60.10;24.60;;;;;;;7.40;76.39;99096.02;86047;1291;25270;-73
2022/10/21 09:21:13;;;;;;;54.00;24.60;;;;;;;7.48;76.20;99094.17;86048;1292;22549;-71
2022/10/21 09:23:20;;;;;;;45.20;24.40;;;;;;;7.57;75.92;99098.25;86011;1286;99175;-72
2022/10/21 09:25:51;;;;;;;50.40;24.30;;;;;;;7.66;76.28;99094.95;86201;1285;23410;-71
2022/10/21 09:27:54;;;;;;;40.70;21.50;;;;;;;7.77;76.03;99094.98;86164;1285;22653;-71
2022/10/21 09:30:01;;;;;;;33.50;20.00;;;;;;;7.81;76.12;99087.63;85995;1281;99224;-72
2022/10/21 09:32:24;;;;;;;35.60;20.40;;;;;;;7.83;75.67;99086.52;86339;1286;23693;-74
2022/10/21 09:35:16;;;;;;;39.00;20.60;;;;;;;7.82;75.58;99080.27;86181;1287;99326;-72
2022/10/21 09:37:34;;;;;;;47.70;23.30;;;;;;;7.82;75.45;99072.73;86175;1292;22508;-71
2022/10/21 09:39:41;;;;;;;58.40;28.50;;;;;;;7.86;75.43;99069.96;86240;1308;22610;-71